sensor_id;sensor_type;location;lat;lon;timestamp;pressure;altitude;pressure_sealevel;temperature;humidity
50977;BME280;36992;48.200;12.418;2023-05-21T00:02:22;96452.97;;;19.98;47.37
50977;BME280;36992;48.200;12.418;2023-05-21T00:04:49;96451.41;;;19.97;47.12
50977;BME280;36992;48.200;12.418;2023-05-21T00:07:16;96441.94;;;19.94;47.61
50977;BME280;36992;48.200;12.418;2023-05-21T00:09:43;96447.75;;;19.93;47.40
50977;BME280;36992;48.200;12.418;2023-05-21T00:12:11;96448.91;;;19.92;46.61
50977;BME280;36992;48.200;12.418;2023-05-21T00:14:37;96434.84;;;19.90;47.83
50977;BME280;36992;48.200;12.418;2023-05-21T00:17:04;96432.81;;;19.87;47.60
50977;BME280;36992;48.200;12.418;2023-05-21T00:19:30;96437.50;;;19.86;47.80
50977;BME280;36992;48.200;12.418;2023-05-21T00:21:58;96430.81;;;19.84;48.21
50977;BME280;36992;48.200;12.418;2023-05-21T00:24:26;96432.72;;;19.83;47.45
50977;BME280;36992;48.200;12.418;2023-05-21T00:26:53;96426.47;;;19.82;47.58
50977;BME280;36992;48.200;12.418;2023-05-21T00:29:20;96422.16;;;19.81;47.71
50977;BME280;36992;48.200;12.418;2023-05-21T00:31:47;96422.88;;;19.78;47.69
50977;BME280;36992;48.200;12.418;2023-05-21T00:34:15;96414.25;;;19.76;47.67
50977;BME280;36992;48.200;12.418;2023-05-21T00:36:43;96414.25;;;19.76;46.95
50977;BME280;36992;48.200;12.418;2023-05-21T00:39:10;96418.84;;;19.72;47.43
50977;BME280;36992;48.200;12.418;2023-05-21T00:41:36;96418.78;;;19.68;47.59
50977;BME280;36992;48.200;12.418;2023-05-21T00:44:04;96414.84;;;19.66;47.65
50977;BME280;36992;48.200;12.418;2023-05-21T00:46:32;96418.72;;;19.65;48.06
50977;BME280;36992;48.200;12.418;2023-05-21T00:48:59;96416.69;;;19.62;48.13
50977;BME280;36992;48.200;12.418;2023-05-21T00:51:26;96423.66;;;19.59;48.17
50977;BME280;36992;48.200;12.418;2023-05-21T00:53:55;96418.56;;;19.58;47.77
50977;BME280;36992;48.200;12.418;2023-05-21T00:56:22;96413.00;;;19.54;47.64
50977;BME280;36992;48.200;12.418;2023-05-21T00:58:50;96419.22;;;19.51;48.06
50977;BME280;36992;48.200;12.418;2023-05-21T01:01:17;96420.72;;;19.48;47.32
50977;BME280;36992;48.200;12.418;2023-05-21T01:03:45;96419.47;;;19.46;47.33
50977;BME280;36992;48.200;12.418;2023-05-21T01:06:12;96414.66;;;19.39;47.66
50977;BME280;36992;48.200;12.418;2023-05-21T01:08:40;96412.22;;;19.34;47.57
50977;BME280;36992;48.200;12.418;2023-05-21T01:11:08;96407.88;;;19.33;47.10
50977;BME280;36992;48.200;12.418;2023-05-21T01:13:38;96406.22;;;19.28;47.34
50977;BME280;36992;48.200;12.418;2023-05-21T01:16:05;96401.44;;;19.21;47.53
50977;BME280;36992;48.200;12.418;2023-05-21T01:18:33;96406.00;;;19.17;47.75
50977;BME280;36992;48.200;12.418;2023-05-21T01:21:03;96405.59;;;19.15;47.95
50977;BME280;36992;48.200;12.418;2023-05-21T01:23:32;96398.81;;;19.09;48.18
50977;BME280;36992;48.200;12.418;2023-05-21T01:25:59;96402.59;;;19.04;48.56
50977;BME280;36992;48.200;12.418;2023-05-21T01:28:25;96400.91;;;18.99;48.60
50977;BME280;36992;48.200;12.418;2023-05-21T01:30:55;96404.78;;;18.98;49.08
50977;BME280;36992;48.200;12.418;2023-05-21T01:33:29;96403.19;;;18.97;48.39
50977;BME280;36992;48.200;12.418;2023-05-21T01:36:02;96403.56;;;18.96;48.52
50977;BME280;36992;48.200;12.418;2023-05-21T01:38:35;96408.22;;;18.95;47.92
50977;BME280;36992;48.200;12.418;2023-05-21T01:41:06;96403.81;;;18.91;48.00
50977;BME280;36992;48.200;12.418;2023-05-21T01:43:37;96400.59;;;18.85;47.38
50977;BME280;36992;48.200;12.418;2023-05-21T01:46:06;96400.50;;;18.81;47.98
50977;BME280;36992;48.200;12.418;2023-05-21T01:48:33;96398.81;;;18.77;47.22
50977;BME280;36992;48.200;12.418;2023-05-21T01:51:02;96407.28;;;18.71;48.01
50977;BME280;36992;48.200;12.418;2023-05-21T01:53:28;96404.81;;;18.66;47.49
50977;BME280;36992;48.200;12.418;2023-05-21T01:55:56;96397.78;;;18.65;48.22
50977;BME280;36992;48.200;12.418;2023-05-21T01:58:23;96403.16;;;18.62;48.68
50977;BME280;36992;48.200;12.418;2023-05-21T02:00:50;96405.44;;;18.59;48.96
50977;BME280;36992;48.200;12.418;2023-05-21T02:03:16;96398.38;;;18.58;49.27
50977;BME280;36992;48.200;12.418;2023-05-21T02:05:43;96400.34;;;18.58;49.02
50977;BME280;36992;48.200;12.418;2023-05-21T02:08:10;96401.94;;;18.59;49.66
50977;BME280;36992;48.200;12.418;2023-05-21T02:10:37;96399.19;;;18.59;49.44
50977;BME280;36992;48.200;12.418;2023-05-21T02:13:05;96396.91;;;18.61;48.88
50977;BME280;36992;48.200;12.418;2023-05-21T02:15:31;96400.78;;;18.60;49.01
50977;BME280;36992;48.200;12.418;2023-05-21T02:17:58;96391.78;;;18.59;49.18
50977;BME280;36992;48.200;12.418;2023-05-21T02:20:25;96395.31;;;18.60;49.19
50977;BME280;36992;48.200;12.418;2023-05-21T02:22:51;96395.31;;;18.60;49.19
50977;BME280;36992;48.200;12.418;2023-05-21T02:25:18;96394.50;;;18.59;48.61
50977;BME280;36992;48.200;12.418;2023-05-21T02:27:44;96399.19;;;18.59;48.94
50977;BME280;36992;48.200;12.418;2023-05-21T02:30:14;96394.97;;;18.62;47.86
50977;BME280;36992;48.200;12.418;2023-05-21T02:32:41;96400.69;;;18.56;47.35
50977;BME280;36992;48.200;12.418;2023-05-21T02:35:10;96402.63;;;18.56;47.19
50977;BME280;36992;48.200;12.418;2023-05-21T02:37:37;96406.06;;;18.53;48.05
50977;BME280;36992;48.200;12.418;2023-05-21T02:40:06;96398.13;;;18.47;47.42
50977;BME280;36992;48.200;12.418;2023-05-21T02:42:34;96402.34;;;18.45;48.26
50977;BME280;36992;48.200;12.418;2023-05-21T02:45:04;96402.28;;;18.41;48.57
50977;BME280;36992;48.200;12.418;2023-05-21T02:47:32;96394.09;;;18.41;48.77
50977;BME280;36992;48.200;12.418;2023-05-21T02:49:59;96392.41;;;18.37;48.30
50977;BME280;36992;48.200;12.418;2023-05-21T02:52:27;96391.63;;;18.36;49.50
50977;BME280;36992;48.200;12.418;2023-05-21T02:54:53;96397.41;;;18.34;48.95
50977;BME280;36992;48.200;12.418;2023-05-21T02:57:20;96391.97;;;18.34;49.07
50977;BME280;36992;48.200;12.418;2023-05-21T02:59:46;96386.88;;;18.33;49.28
50977;BME280;36992;48.200;12.418;2023-05-21T03:02:12;96386.88;;;18.33;49.02
50977;BME280;36992;48.200;12.418;2023-05-21T03:04:40;96379.47;;;18.33;49.32
50977;BME280;36992;48.200;12.418;2023-05-21T03:07:10;96380.97;;;18.31;49.15
50977;BME280;36992;48.200;12.418;2023-05-21T03:09:38;96382.13;;;18.30;49.00
50977;BME280;36992;48.200;12.418;2023-05-21T03:12:05;96375.09;;;18.29;49.32
50977;BME280;36992;48.200;12.418;2023-05-21T03:14:31;96373.50;;;18.28;48.56
50977;BME280;36992;48.200;12.418;2023-05-21T03:16:58;96378.16;;;18.27;49.23
50977;BME280;36992;48.200;12.418;2023-05-21T03:19:24;96378.16;;;18.27;49.01
50977;BME280;36992;48.200;12.418;2023-05-21T03:21:52;96378.16;;;18.27;48.12
50977;BME280;36992;48.200;12.418;2023-05-21T03:24:20;96368.75;;;18.25;48.95
50977;BME280;36992;48.200;12.418;2023-05-21T03:26:47;96371.47;;;18.25;48.98
50977;BME280;36992;48.200;12.418;2023-05-21T03:29:14;96363.63;;;18.23;48.71
50977;BME280;36992;48.200;12.418;2023-05-21T03:31:40;96367.16;;;18.24;49.06
50977;BME280;36992;48.200;12.418;2023-05-21T03:34:07;96377.63;;;18.22;48.36
50977;BME280;36992;48.200;12.418;2023-05-21T03:36:33;96382.63;;;18.19;48.32
50977;BME280;36992;48.200;12.418;2023-05-21T03:39:01;96380.34;;;18.22;47.88
50977;BME280;36992;48.200;12.418;2023-05-21T03:41:28;96377.16;;;18.19;48.77
50977;BME280;36992;48.200;12.418;2023-05-21T03:43:55;96381.03;;;18.18;48.99
50977;BME280;36992;48.200;12.418;2023-05-21T03:46:21;96384.91;;;18.17;48.04
50977;BME280;36992;48.200;12.418;2023-05-21T03:48:48;96379.03;;;18.15;48.53
50977;BME280;36992;48.200;12.418;2023-05-21T03:51:14;96380.19;;;18.14;48.78
50977;BME280;36992;48.200;12.418;2023-05-21T03:53:42;96378.56;;;18.13;47.98
50977;BME280;36992;48.200;12.418;2023-05-21T03:56:09;96375.84;;;18.13;48.23
50977;BME280;36992;48.200;12.418;2023-05-21T03:58:36;96384.75;;;18.10;48.23
50977;BME280;36992;48.200;12.418;2023-05-21T04:01:02;96376.13;;;18.08;48.69
50977;BME280;36992;48.200;12.418;2023-05-21T04:03:29;96378.38;;;18.06;48.82
50977;BME280;36992;48.200;12.418;2023-05-21T04:05:57;96379.97;;;18.07;49.21
50977;BME280;36992;48.200;12.418;2023-05-21T04:08:23;96383.84;;;18.06;49.69
50977;BME280;36992;48.200;12.418;2023-05-21T04:10:50;96386.22;;;18.08;49.15
50977;BME280;36992;48.200;12.418;2023-05-21T04:13:18;96384.31;;;18.08;49.00
50977;BME280;36992;48.200;12.418;2023-05-21T04:15:44;96385.41;;;18.07;49.25
50977;BME280;36992;48.200;12.418;2023-05-21T04:18:11;96383.50;;;18.08;49.51
50977;BME280;36992;48.200;12.418;2023-05-21T04:20:39;96390.53;;;18.09;49.82
50977;BME280;36992;48.200;12.418;2023-05-21T04:23:06;96384.31;;;18.08;49.64
50977;BME280;36992;48.200;12.418;2023-05-21T04:25:32;96384.75;;;18.10;49.09
50977;BME280;36992;48.200;12.418;2023-05-21T04:27:59;96390.19;;;18.10;49.62
50977;BME280;36992;48.200;12.418;2023-05-21T04:30:27;96400.38;;;18.13;49.28
50977;BME280;36992;48.200;12.418;2023-05-21T04:32:54;96392.56;;;18.12;49.22
50977;BME280;36992;48.200;12.418;2023-05-21T04:35:22;96394.50;;;18.11;49.29
50977;BME280;36992;48.200;12.418;2023-05-21T04:37:48;96389.84;;;18.12;49.59
50977;BME280;36992;48.200;12.418;2023-05-21T04:40:16;96398.81;;;18.12;49.86
50977;BME280;36992;48.200;12.418;2023-05-21T04:42:48;96399.59;;;18.13;50.21
50977;BME280;36992;48.200;12.418;2023-05-21T04:45:15;96399.59;;;18.13;49.83
50977;BME280;36992;48.200;12.418;2023-05-21T04:47:43;96396.53;;;18.14;50.40
50977;BME280;36992;48.200;12.418;2023-05-21T04:50:10;96399.25;;;18.14;50.21
50977;BME280;36992;48.200;12.418;2023-05-21T04:52:38;96395.38;;;18.15;49.56
50977;BME280;36992;48.200;12.418;2023-05-21T04:55:05;96399.69;;;18.16;49.90
50977;BME280;36992;48.200;12.418;2023-05-21T04:57:32;96395.81;;;18.17;50.58
50977;BME280;36992;48.200;12.418;2023-05-21T04:59:59;96400.94;;;18.19;50.51
50977;BME280;36992;48.200;12.418;2023-05-21T05:02:26;96406.03;;;18.20;50.16
50977;BME280;36992;48.200;12.418;2023-05-21T05:04:54;96406.13;;;18.24;50.58
50977;BME280;36992;48.200;12.418;2023-05-21T05:07:20;96400.69;;;18.24;50.21
50977;BME280;36992;48.200;12.418;2023-05-21T05:09:47;96401.44;;;18.25;50.39
50977;BME280;36992;48.200;12.418;2023-05-21T05:12:13;96400.31;;;18.26;50.38
50977;BME280;36992;48.200;12.418;2023-05-21T05:14:40;96393.72;;;18.27;50.03
50977;BME280;36992;48.200;12.418;2023-05-21T05:17:06;96395.31;;;18.28;50.02
50977;BME280;36992;48.200;12.418;2023-05-21T05:19:34;96393.03;;;18.30;49.94
50977;BME280;36992;48.200;12.418;2023-05-21T05:22:02;96397.78;;;18.33;50.27
50977;BME280;36992;48.200;12.418;2023-05-21T05:24:29;96386.88;;;18.33;49.79
50977;BME280;36992;48.200;12.418;2023-05-21T05:26:55;96388.47;;;18.34;49.99
50977;BME280;36992;48.200;12.418;2023-05-21T05:29:22;96397.88;;;18.37;50.25
50977;BME280;36992;48.200;12.418;2023-05-21T05:31:48;96395.56;;;18.39;50.77
50977;BME280;36992;48.200;12.418;2023-05-21T05:34:15;96389.78;;;18.40;50.54
50977;BME280;36992;48.200;12.418;2023-05-21T05:36:41;96397.25;;;18.43;50.47
50977;BME280;36992;48.200;12.418;2023-05-21T05:39:09;96397.72;;;18.45;50.59
50977;BME280;36992;48.200;12.418;2023-05-21T05:41:35;96386.41;;;18.47;50.74
50977;BME280;36992;48.200;12.418;2023-05-21T05:44:02;96388.81;;;18.49;51.32
50977;BME280;36992;48.200;12.418;2023-05-21T05:46:29;96390.84;;;18.52;51.00
50977;BME280;36992;48.200;12.418;2023-05-21T05:48:55;96386.59;;;18.54;51.22
50977;BME280;36992;48.200;12.418;2023-05-21T05:51:22;96389.44;;;18.58;50.83
50977;BME280;36992;48.200;12.418;2023-05-21T05:53:48;96379.72;;;18.60;51.31
50977;BME280;36992;48.200;12.418;2023-05-21T05:56:16;96383.00;;;18.66;50.77
50977;BME280;36992;48.200;12.418;2023-05-21T05:58:42;96383.44;;;18.68;51.06
50977;BME280;36992;48.200;12.418;2023-05-21T06:01:09;96380.44;;;18.73;51.71
50977;BME280;36992;48.200;12.418;2023-05-21T06:03:35;96381.31;;;18.78;51.46
50977;BME280;36992;48.200;12.418;2023-05-21T06:06:02;96391.16;;;18.82;50.90
50977;BME280;36992;48.200;12.418;2023-05-21T06:08:29;96381.13;;;18.86;50.69
50977;BME280;36992;48.200;12.418;2023-05-21T06:10:55;96389.03;;;18.92;50.53
50977;BME280;36992;48.200;12.418;2023-05-21T06:13:23;96382.94;;;18.98;50.39
50977;BME280;36992;48.200;12.418;2023-05-21T06:15:49;96384.63;;;19.03;51.13
50977;BME280;36992;48.200;12.418;2023-05-21T06:18:16;96376.97;;;19.09;50.73
50977;BME280;36992;48.200;12.418;2023-05-21T06:20:42;96377.81;;;19.13;50.66
50977;BME280;36992;48.200;12.418;2023-05-21T06:23:09;96380.28;;;19.18;50.56
50977;BME280;36992;48.200;12.418;2023-05-21T06:25:35;96375.34;;;19.24;50.43
50977;BME280;36992;48.200;12.418;2023-05-21T06:28:02;96378.56;;;19.30;50.09
50977;BME280;36992;48.200;12.418;2023-05-21T06:30:30;96375.56;;;19.35;49.76
50977;BME280;36992;48.200;12.418;2023-05-21T06:32:56;96380.75;;;19.40;49.77
50977;BME280;36992;48.200;12.418;2023-05-21T06:35:23;96383.19;;;19.45;49.85
50977;BME280;36992;48.200;12.418;2023-05-21T06:37:50;96379.00;;;19.51;50.33
50977;BME280;36992;48.200;12.418;2023-05-21T06:40:16;96378.72;;;19.57;49.65
50977;BME280;36992;48.200;12.418;2023-05-21T06:42:42;96376.50;;;19.62;49.35
50977;BME280;36992;48.200;12.418;2023-05-21T06:45:10;96379.75;;;19.68;48.98
50977;BME280;36992;48.200;12.418;2023-05-21T06:47:38;96379.88;;;19.75;48.99
50977;BME280;36992;48.200;12.418;2023-05-21T06:50:05;96381.91;;;19.78;48.96
50977;BME280;36992;48.200;12.418;2023-05-21T06:52:32;96380.81;;;19.83;48.67
50977;BME280;36992;48.200;12.418;2023-05-21T06:54:58;96385.19;;;19.88;48.32
50977;BME280;36992;48.200;12.418;2023-05-21T06:57:24;96389.94;;;19.91;48.88
50977;BME280;36992;48.200;12.418;2023-05-21T06:59:51;96390.78;;;19.95;48.92
50977;BME280;36992;48.200;12.418;2023-05-21T07:02:17;96383.47;;;19.99;48.24
50977;BME280;36992;48.200;12.418;2023-05-21T07:04:45;96385.50;;;20.02;48.61
50977;BME280;36992;48.200;12.418;2023-05-21T07:07:12;96393.31;;;20.04;47.97
50977;BME280;36992;48.200;12.418;2023-05-21T07:09:38;96393.38;;;20.07;48.14
50977;BME280;36992;48.200;12.418;2023-05-21T07:12:05;96390.72;;;20.11;47.76
50977;BME280;36992;48.200;12.418;2023-05-21T07:14:32;96395.47;;;20.14;47.94
50977;BME280;36992;48.200;12.418;2023-05-21T07:16:58;96393.94;;;20.17;48.44
50977;BME280;36992;48.200;12.418;2023-05-21T07:19:25;96384.25;;;20.19;48.32
50977;BME280;36992;48.200;12.418;2023-05-21T07:21:53;96394.06;;;20.24;48.39
50977;BME280;36992;48.200;12.418;2023-05-21T07:24:20;96392.56;;;20.27;48.48
50977;BME280;36992;48.200;12.418;2023-05-21T07:26:47;96391.47;;;20.31;48.65
50977;BME280;36992;48.200;12.418;2023-05-21T07:29:13;96382.97;;;20.37;48.51
50977;BME280;36992;48.200;12.418;2023-05-21T07:31:40;96384.22;;;20.43;49.37
50977;BME280;36992;48.200;12.418;2023-05-21T07:34:06;96382.78;;;20.49;48.57
50977;BME280;36992;48.200;12.418;2023-05-21T07:36:33;96381.72;;;20.57;49.25
50977;BME280;36992;48.200;12.418;2023-05-21T07:39:00;96381.47;;;20.66;46.98
50977;BME280;36992;48.200;12.418;2023-05-21T07:41:27;96379.25;;;20.72;47.38
50977;BME280;36992;48.200;12.418;2023-05-21T07:43:54;96379.69;;;20.78;47.87
50977;BME280;36992;48.200;12.418;2023-05-21T07:46:20;96386.13;;;20.85;47.02
50977;BME280;36992;48.200;12.418;2023-05-21T07:48:47;96380.31;;;20.91;47.70
50977;BME280;36992;48.200;12.418;2023-05-21T07:51:14;96385.06;;;20.94;46.38
50977;BME280;36992;48.200;12.418;2023-05-21T07:53:40;96383.56;;;21.00;45.98
50977;BME280;36992;48.200;12.418;2023-05-21T07:56:08;96387.56;;;21.06;46.58
50977;BME280;36992;48.200;12.418;2023-05-21T07:58:35;96383.69;;;21.07;46.06
50977;BME280;36992;48.200;12.418;2023-05-21T08:01:01;96383.72;;;21.11;46.54
50977;BME280;36992;48.200;12.418;2023-05-21T08:03:28;96383.81;;;21.14;46.42
50977;BME280;36992;48.200;12.418;2023-05-21T08:05:55;96384.63;;;21.19;46.17
50977;BME280;36992;48.200;12.418;2023-05-21T08:08:21;96380.00;;;21.23;46.51
50977;BME280;36992;48.200;12.418;2023-05-21T08:10:48;96384.72;;;21.26;46.67
50977;BME280;36992;48.200;12.418;2023-05-21T08:13:16;96389.88;;;21.31;46.70
50977;BME280;36992;48.200;12.418;2023-05-21T08:15:44;96385.97;;;21.32;46.97
50977;BME280;36992;48.200;12.418;2023-05-21T08:18:11;96382.06;;;21.33;47.00
50977;BME280;36992;48.200;12.418;2023-05-21T08:20:37;96391.97;;;21.41;46.74
50977;BME280;36992;48.200;12.418;2023-05-21T08:23:04;96388.47;;;21.45;46.43
50977;BME280;36992;48.200;12.418;2023-05-21T08:25:30;96385.81;;;21.52;46.40
50977;BME280;36992;48.200;12.418;2023-05-21T08:27:57;96389.41;;;21.56;46.94
50977;BME280;36992;48.200;12.418;2023-05-21T08:30:25;96390.66;;;21.62;46.62
50977;BME280;36992;48.200;12.418;2023-05-21T08:32:51;96392.28;;;21.67;46.33
50977;BME280;36992;48.200;12.418;2023-05-21T08:35:19;96388.47;;;21.72;46.67
50977;BME280;36992;48.200;12.418;2023-05-21T08:37:45;96386.97;;;21.78;47.15
50977;BME280;36992;48.200;12.418;2023-05-21T08:40:12;96387.81;;;21.86;46.30
50977;BME280;36992;48.200;12.418;2023-05-21T08:42:42;96388.69;;;21.93;47.42
50977;BME280;36992;48.200;12.418;2023-05-21T08:45:11;96389.53;;;21.98;46.83
50977;BME280;36992;48.200;12.418;2023-05-21T08:47:40;96388.78;;;22.04;47.01
50977;BME280;36992;48.200;12.418;2023-05-21T08:50:09;96375.56;;;22.10;45.95
50977;BME280;36992;48.200;12.418;2023-05-21T08:52:36;96382.28;;;22.16;46.62
50977;BME280;36992;48.200;12.418;2023-05-21T08:55:03;96382.72;;;22.22;44.17
50977;BME280;36992;48.200;12.418;2023-05-21T08:57:30;96385.13;;;22.27;42.10
50977;BME280;36992;48.200;12.418;2023-05-21T08:59:57;96381.22;;;22.32;40.99
50977;BME280;36992;48.200;12.418;2023-05-21T09:02:23;96380.50;;;22.35;39.50
50977;BME280;36992;48.200;12.418;2023-05-21T09:04:52;96375.44;;;22.41;39.92
50977;BME280;36992;48.200;12.418;2023-05-21T09:07:22;96384.50;;;22.45;39.98
50977;BME280;36992;48.200;12.418;2023-05-21T09:09:54;96372.81;;;22.52;40.31
50977;BME280;36992;48.200;12.418;2023-05-21T09:12:21;96379.50;;;22.54;39.07
50977;BME280;36992;48.200;12.418;2023-05-21T09:14:48;96379.16;;;22.59;38.99
50977;BME280;36992;48.200;12.418;2023-05-21T09:17:14;96373.34;;;22.68;39.31
50977;BME280;36992;48.200;12.418;2023-05-21T09:20:04;96382.84;;;22.82;40.42
50977;BME280;36992;48.200;12.418;2023-05-21T09:22:34;96383.25;;;22.84;38.09
50977;BME280;36992;48.200;12.418;2023-05-21T09:25:03;96382.53;;;22.94;38.74
50977;BME280;36992;48.200;12.418;2023-05-21T09:27:31;96379.44;;;22.99;38.82
50977;BME280;36992;48.200;12.418;2023-05-21T09:29:57;96384.97;;;23.07;37.86
50977;BME280;36992;48.200;12.418;2023-05-21T09:32:24;96377.94;;;23.13;38.20
50977;BME280;36992;48.200;12.418;2023-05-21T09:34:50;96378.78;;;23.21;38.54
50977;BME280;36992;48.200;12.418;2023-05-21T09:37:18;96382.34;;;23.28;38.63
50977;BME280;36992;48.200;12.418;2023-05-21T09:39:47;96378.47;;;23.33;37.79
50977;BME280;36992;48.200;12.418;2023-05-21T09:42:13;96375.75;;;23.40;36.03
50977;BME280;36992;48.200;12.418;2023-05-21T09:44:42;96371.88;;;23.49;37.59
50977;BME280;36992;48.200;12.418;2023-05-21T09:47:08;96379.75;;;23.54;36.33
50977;BME280;36992;48.200;12.418;2023-05-21T09:49:36;96374.69;;;23.60;36.40
50977;BME280;36992;48.200;12.418;2023-05-21T09:52:02;96386.47;;;23.64;36.83
50977;BME280;36992;48.200;12.418;2023-05-21T09:54:31;96380.22;;;23.70;35.82
50977;BME280;36992;48.200;12.418;2023-05-21T09:56:59;96376.69;;;23.74;36.34
50977;BME280;36992;48.200;12.418;2023-05-21T09:59:34;96368.06;;;23.82;38.01
50977;BME280;36992;48.200;12.418;2023-05-21T10:02:01;96377.50;;;23.85;37.44
50977;BME280;36992;48.200;12.418;2023-05-21T10:04:27;96368.88;;;23.90;36.77
50977;BME280;36992;48.200;12.418;2023-05-21T10:06:55;96372.81;;;23.96;36.55
50977;BME280;36992;48.200;12.418;2023-05-21T10:09:22;96372.44;;;24.02;36.39
50977;BME280;36992;48.200;12.418;2023-05-21T10:11:52;96380.75;;;24.13;37.96
50977;BME280;36992;48.200;12.418;2023-05-21T10:14:19;96371.31;;;24.17;37.18
50977;BME280;36992;48.200;12.418;2023-05-21T10:16:47;96378.81;;;24.24;36.47
50977;BME280;36992;48.200;12.418;2023-05-21T10:19:15;96375.66;;;24.29;35.37
50977;BME280;36992;48.200;12.418;2023-05-21T10:21:42;96372.91;;;24.36;36.72
50977;BME280;36992;48.200;12.418;2023-05-21T10:24:10;96368.59;;;24.43;36.48
50977;BME280;36992;48.200;12.418;2023-05-21T10:26:37;96359.16;;;24.47;35.86
50977;BME280;36992;48.200;12.418;2023-05-21T10:29:06;96367.41;;;24.55;36.55
50977;BME280;36992;48.200;12.418;2023-05-21T10:31:33;96366.63;;;24.58;35.37
50977;BME280;36992;48.200;12.418;2023-05-21T10:34:02;96361.50;;;24.67;36.95
50977;BME280;36992;48.200;12.418;2023-05-21T10:36:30;96356.00;;;24.71;35.58
50977;BME280;36992;48.200;12.418;2023-05-21T10:38:59;96356.00;;;24.78;36.46
50977;BME280;36992;48.200;12.418;2023-05-21T10:41:26;96353.66;;;24.84;35.72
50977;BME280;36992;48.200;12.418;2023-05-21T10:44:03;96358.78;;;24.92;37.04
50977;BME280;36992;48.200;12.418;2023-05-21T10:47:03;96358.75;;;25.03;37.62
50977;BME280;36992;48.200;12.418;2023-05-21T10:49:53;96354.03;;;25.04;36.98
50977;BME280;36992;48.200;12.418;2023-05-21T10:52:33;96353.22;;;25.07;35.56
50977;BME280;36992;48.200;12.418;2023-05-21T10:55:12;96350.44;;;25.14;36.01
50977;BME280;36992;48.200;12.418;2023-05-21T10:57:56;96342.19;;;25.18;35.87
50977;BME280;36992;48.200;12.418;2023-05-21T11:00:28;96347.69;;;25.22;34.49
50977;BME280;36992;48.200;12.418;2023-05-21T11:02:58;96352.38;;;25.28;35.31
50977;BME280;36992;48.200;12.418;2023-05-21T11:05:38;96346.81;;;25.39;35.98
50977;BME280;36992;48.200;12.418;2023-05-21T11:08:17;96346.81;;;25.46;35.41
50977;BME280;36992;48.200;12.418;2023-05-21T11:10:50;96336.53;;;25.51;35.00
50977;BME280;36992;48.200;12.418;2023-05-21T11:13:17;96338.91;;;25.56;35.15
50977;BME280;36992;48.200;12.418;2023-05-21T11:16:07;96342.00;;;25.72;36.45
50977;BME280;36992;48.200;12.418;2023-05-21T11:18:58;96336.44;;;25.80;36.27
50977;BME280;36992;48.200;12.418;2023-05-21T11:21:28;96336.41;;;25.83;34.66
50977;BME280;36992;48.200;12.418;2023-05-21T11:23:58;96337.94;;;25.92;34.69
50977;BME280;36992;48.200;12.418;2023-05-21T11:26:27;96335.56;;;25.97;34.18
50977;BME280;36992;48.200;12.418;2023-05-21T11:29:05;96338.59;;;26.10;34.88
50977;BME280;36992;48.200;12.418;2023-05-21T11:31:33;96340.97;;;26.12;34.24
50977;BME280;36992;48.200;12.418;2023-05-21T11:34:13;96338.94;;;26.27;35.34
50977;BME280;36992;48.200;12.418;2023-05-21T11:36:41;96333.41;;;26.27;33.37
50977;BME280;36992;48.200;12.418;2023-05-21T11:39:10;96338.88;;;26.34;33.73
50977;BME280;36992;48.200;12.418;2023-05-21T11:41:55;96331.25;;;26.49;34.93
50977;BME280;36992;48.200;12.418;2023-05-21T11:44:37;96328.03;;;26.58;35.24
50977;BME280;36992;48.200;12.418;2023-05-21T11:47:04;96331.94;;;26.61;34.14
50977;BME280;36992;48.200;12.418;2023-05-21T11:49:33;96323.97;;;26.70;33.94
50977;BME280;36992;48.200;12.418;2023-05-21T11:52:00;96327.84;;;26.76;32.20
50977;BME280;36992;48.200;12.418;2023-05-21T11:54:27;96323.84;;;26.85;32.16
50977;BME280;36992;48.200;12.418;2023-05-21T11:56:58;96326.56;;;26.92;33.11
50977;BME280;36992;48.200;12.418;2023-05-21T11:59:25;96319.75;;;27.00;33.00
50977;BME280;36992;48.200;12.418;2023-05-21T12:01:52;96318.13;;;27.06;31.79
50977;BME280;36992;48.200;12.418;2023-05-21T12:04:19;96316.47;;;27.13;29.88
50977;BME280;36992;48.200;12.418;2023-05-21T12:06:46;96319.94;;;27.20;30.36
50977;BME280;36992;48.200;12.418;2023-05-21T12:09:14;96306.88;;;27.25;29.37
50977;BME280;36992;48.200;12.418;2023-05-21T12:11:41;96315.88;;;27.29;30.39
50977;BME280;36992;48.200;12.418;2023-05-21T12:14:09;96319.00;;;27.34;31.02
50977;BME280;36992;48.200;12.418;2023-05-21T12:16:36;96325.63;;;27.41;31.04
50977;BME280;36992;48.200;12.418;2023-05-21T12:19:04;96319.22;;;27.47;31.10
50977;BME280;36992;48.200;12.418;2023-05-21T12:21:31;96326.66;;;27.54;32.64
50977;BME280;36992;48.200;12.418;2023-05-21T12:23:59;96321.47;;;27.60;31.95
50977;BME280;36992;48.200;12.418;2023-05-21T12:26:26;96315.88;;;27.64;30.12
50977;BME280;36992;48.200;12.418;2023-05-21T12:28:53;96315.00;;;27.70;29.13
50977;BME280;36992;48.200;12.418;2023-05-21T12:31:19;96313.34;;;27.77;28.89
50977;BME280;36992;48.200;12.418;2023-05-21T12:33:47;96317.97;;;27.83;29.72
50977;BME280;36992;48.200;12.418;2023-05-21T12:36:20;96314.28;;;27.94;31.20
50977;BME280;36992;48.200;12.418;2023-05-21T12:38:48;96313.47;;;27.97;30.85
50977;BME280;36992;48.200;12.418;2023-05-21T12:41:17;96312.19;;;28.01;30.32
50977;BME280;36992;48.200;12.418;2023-05-21T12:43:44;96310.59;;;28.04;30.02
50977;BME280;36992;48.200;12.418;2023-05-21T12:46:10;96316.84;;;28.08;29.25
50977;BME280;36992;48.200;12.418;2023-05-21T12:48:38;96311.22;;;28.12;28.94
50977;BME280;36992;48.200;12.418;2023-05-21T12:51:06;96311.63;;;28.14;29.88
50977;BME280;36992;48.200;12.418;2023-05-21T12:53:36;96307.59;;;28.19;29.59
50977;BME280;36992;48.200;12.418;2023-05-21T12:56:07;96308.72;;;28.21;29.60